sensor_id;sensor_type;location;lat;lon;timestamp;P1;durP1;ratioP1;P2;durP2;ratioP2
3293;SDS011;1659;51.470;6.770;2022-12-18T00:01:58;43.23;;;23.43;;
3293;SDS011;1659;51.470;6.770;2022-12-18T00:04:25;52.90;;;25.57;;
3293;SDS011;1659;51.470;6.770;2022-12-18T00:06:52;42.70;;;20.20;;
3293;SDS011;1659;51.470;6.770;2022-12-18T00:09:19;43.23;;;20.83;;
3293;SDS011;1659;51.470;6.770;2022-12-18T00:11:46;49.10;;;22.10;;
3293;SDS011;1659;51.470;6.770;2022-12-18T00:14:13;35.40;;;21.03;;
3293;SDS011;1659;51.470;6.770;2022-12-18T00:16:42;44.80;;;21.20;;
3293;SDS011;1659;51.470;6.770;2022-12-18T00:19:11;34.77;;;17.13;;
3293;SDS011;1659;51.470;6.770;2022-12-18T00:21:38;37.70;;;19.50;;
3293;SDS011;1659;51.470;6.770;2022-12-18T00:24:07;35.47;;;17.83;;
3293;SDS011;1659;51.470;6.770;2022-12-18T00:26:34;41.00;;;16.90;;
3293;SDS011;1659;51.470;6.770;2022-12-18T00:29:03;38.43;;;18.37;;
3293;SDS011;1659;51.470;6.770;2022-12-18T00:31:31;32.20;;;17.77;;
3293;SDS011;1659;51.470;6.770;2022-12-18T00:33:58;33.47;;;16.47;;
3293;SDS011;1659;51.470;6.770;2022-12-18T00:36:27;26.87;;;14.67;;
3293;SDS011;1659;51.470;6.770;2022-12-18T00:38:55;32.10;;;16.50;;
3293;SDS011;1659;51.470;6.770;2022-12-18T00:41:23;29.50;;;16.33;;
3293;SDS011;1659;51.470;6.770;2022-12-18T00:44:09;37.20;;;17.90;;
3293;SDS011;1659;51.470;6.770;2022-12-18T00:46:37;30.13;;;16.40;;
3293;SDS011;1659;51.470;6.770;2022-12-18T00:49:04;39.43;;;17.80;;
3293;SDS011;1659;51.470;6.770;2022-12-18T00:51:32;38.97;;;18.03;;
3293;SDS011;1659;51.470;6.770;2022-12-18T00:53:59;30.30;;;16.57;;
3293;SDS011;1659;51.470;6.770;2022-12-18T00:56:25;36.27;;;19.00;;
3293;SDS011;1659;51.470;6.770;2022-12-18T00:58:52;30.90;;;16.10;;
3293;SDS011;1659;51.470;6.770;2022-12-18T01:01:18;26.30;;;14.10;;
3293;SDS011;1659;51.470;6.770;2022-12-18T01:03:45;31.97;;;13.97;;
3293;SDS011;1659;51.470;6.770;2022-12-18T01:06:12;29.30;;;15.70;;
3293;SDS011;1659;51.470;6.770;2022-12-18T01:08:42;32.80;;;15.60;;
3293;SDS011;1659;51.470;6.770;2022-12-18T01:11:09;33.33;;;16.20;;
3293;SDS011;1659;51.470;6.770;2022-12-18T01:13:37;26.83;;;15.60;;
3293;SDS011;1659;51.470;6.770;2022-12-18T01:16:04;31.50;;;14.90;;
3293;SDS011;1659;51.470;6.770;2022-12-18T01:18:31;29.30;;;16.53;;
3293;SDS011;1659;51.470;6.770;2022-12-18T01:20:57;30.53;;;15.13;;
3293;SDS011;1659;51.470;6.770;2022-12-18T01:23:24;29.23;;;15.17;;
3293;SDS011;1659;51.470;6.770;2022-12-18T01:25:54;22.50;;;12.73;;
3293;SDS011;1659;51.470;6.770;2022-12-18T01:28:21;26.87;;;13.70;;
3293;SDS011;1659;51.470;6.770;2022-12-18T01:30:47;28.93;;;12.83;;
3293;SDS011;1659;51.470;6.770;2022-12-18T01:33:14;20.60;;;12.07;;
3293;SDS011;1659;51.470;6.770;2022-12-18T01:35:41;26.00;;;15.13;;
3293;SDS011;1659;51.470;6.770;2022-12-18T01:38:07;26.20;;;12.80;;
3293;SDS011;1659;51.470;6.770;2022-12-18T01:40:34;28.43;;;13.90;;
3293;SDS011;1659;51.470;6.770;2022-12-18T01:43:02;26.43;;;13.30;;
3293;SDS011;1659;51.470;6.770;2022-12-18T01:45:30;29.70;;;13.70;;
3293;SDS011;1659;51.470;6.770;2022-12-18T01:47:58;23.83;;;13.50;;
3293;SDS011;1659;51.470;6.770;2022-12-18T01:50:28;28.77;;;13.37;;
3293;SDS011;1659;51.470;6.770;2022-12-18T01:52:59;30.37;;;13.90;;
3293;SDS011;1659;51.470;6.770;2022-12-18T01:55:28;28.47;;;15.20;;
3293;SDS011;1659;51.470;6.770;2022-12-18T01:57:57;20.33;;;12.40;;
3293;SDS011;1659;51.470;6.770;2022-12-18T02:00:26;23.60;;;12.77;;
3293;SDS011;1659;51.470;6.770;2022-12-18T02:02:54;25.53;;;12.77;;
3293;SDS011;1659;51.470;6.770;2022-12-18T02:05:22;27.07;;;11.80;;
3293;SDS011;1659;51.470;6.770;2022-12-18T02:07:56;20.57;;;11.53;;
3293;SDS011;1659;51.470;6.770;2022-12-18T02:10:34;21.07;;;10.70;;
3293;SDS011;1659;51.470;6.770;2022-12-18T02:13:06;26.20;;;12.00;;
3293;SDS011;1659;51.470;6.770;2022-12-18T02:15:41;20.33;;;11.70;;
3293;SDS011;1659;51.470;6.770;2022-12-18T02:18:17;28.37;;;13.13;;
3293;SDS011;1659;51.470;6.770;2022-12-18T02:20:48;29.30;;;14.30;;
3293;SDS011;1659;51.470;6.770;2022-12-18T02:23:22;21.40;;;11.03;;
3293;SDS011;1659;51.470;6.770;2022-12-18T02:26:04;24.17;;;13.63;;
3293;SDS011;1659;51.470;6.770;2022-12-18T02:28:40;21.87;;;11.23;;
3293;SDS011;1659;51.470;6.770;2022-12-18T02:31:09;22.37;;;11.93;;
3293;SDS011;1659;51.470;6.770;2022-12-18T02:33:40;21.60;;;12.67;;
3293;SDS011;1659;51.470;6.770;2022-12-18T02:36:09;22.93;;;12.87;;
3293;SDS011;1659;51.470;6.770;2022-12-18T02:38:39;21.37;;;12.60;;
3293;SDS011;1659;51.470;6.770;2022-12-18T02:41:09;30.33;;;13.00;;
3293;SDS011;1659;51.470;6.770;2022-12-18T02:43:37;24.30;;;12.67;;
3293;SDS011;1659;51.470;6.770;2022-12-18T02:48:53;19.97;;;12.17;;
3293;SDS011;1659;51.470;6.770;2022-12-18T02:51:26;22.07;;;12.33;;
3293;SDS011;1659;51.470;6.770;2022-12-18T02:54:00;24.17;;;13.03;;
3293;SDS011;1659;51.470;6.770;2022-12-18T02:56:37;25.60;;;13.30;;
3293;SDS011;1659;51.470;6.770;2022-12-18T02:59:07;21.13;;;12.10;;
3293;SDS011;1659;51.470;6.770;2022-12-18T03:01:40;23.23;;;12.40;;
3293;SDS011;1659;51.470;6.770;2022-12-18T03:04:14;22.43;;;12.30;;
3293;SDS011;1659;51.470;6.770;2022-12-18T03:06:46;26.83;;;13.77;;
3293;SDS011;1659;51.470;6.770;2022-12-18T03:09:17;26.90;;;12.90;;
3293;SDS011;1659;51.470;6.770;2022-12-18T03:11:50;31.03;;;12.80;;
3293;SDS011;1659;51.470;6.770;2022-12-18T03:14:39;25.83;;;13.10;;
3293;SDS011;1659;51.470;6.770;2022-12-18T03:17:09;21.43;;;12.57;;
3293;SDS011;1659;51.470;6.770;2022-12-18T03:19:40;26.30;;;13.67;;
3293;SDS011;1659;51.470;6.770;2022-12-18T03:22:09;22.83;;;12.63;;
3293;SDS011;1659;51.470;6.770;2022-12-18T03:24:36;23.00;;;13.00;;
3293;SDS011;1659;51.470;6.770;2022-12-18T03:27:06;21.83;;;11.93;;
3293;SDS011;1659;51.470;6.770;2022-12-18T03:29:37;28.23;;;12.27;;
3293;SDS011;1659;51.470;6.770;2022-12-18T03:32:07;27.53;;;12.73;;
3293;SDS011;1659;51.470;6.770;2022-12-18T03:34:38;28.53;;;12.77;;
3293;SDS011;1659;51.470;6.770;2022-12-18T03:37:08;34.23;;;12.80;;
3293;SDS011;1659;51.470;6.770;2022-12-18T03:39:34;32.77;;;13.53;;
3293;SDS011;1659;51.470;6.770;2022-12-18T03:42:04;23.80;;;13.50;;
3293;SDS011;1659;51.470;6.770;2022-12-18T03:44:38;23.40;;;12.40;;
3293;SDS011;1659;51.470;6.770;2022-12-18T03:47:11;26.63;;;13.37;;
3293;SDS011;1659;51.470;6.770;2022-12-18T03:49:43;25.30;;;12.43;;
3293;SDS011;1659;51.470;6.770;2022-12-18T03:52:15;30.60;;;14.93;;
3293;SDS011;1659;51.470;6.770;2022-12-18T03:54:46;30.97;;;15.10;;
3293;SDS011;1659;51.470;6.770;2022-12-18T03:57:16;23.07;;;12.60;;
3293;SDS011;1659;51.470;6.770;2022-12-18T03:59:45;21.83;;;12.37;;
3293;SDS011;1659;51.470;6.770;2022-12-18T04:02:15;31.40;;;13.07;;
3293;SDS011;1659;51.470;6.770;2022-12-18T04:04:43;20.93;;;12.87;;
3293;SDS011;1659;51.470;6.770;2022-12-18T04:07:12;25.33;;;13.17;;
3293;SDS011;1659;51.470;6.770;2022-12-18T04:09:40;22.33;;;12.80;;
3293;SDS011;1659;51.470;6.770;2022-12-18T04:12:09;28.70;;;12.87;;
3293;SDS011;1659;51.470;6.770;2022-12-18T04:14:37;27.00;;;13.60;;
3293;SDS011;1659;51.470;6.770;2022-12-18T04:17:04;27.50;;;14.20;;
3293;SDS011;1659;51.470;6.770;2022-12-18T04:19:30;22.53;;;12.00;;
3293;SDS011;1659;51.470;6.770;2022-12-18T04:21:57;22.83;;;11.97;;
3293;SDS011;1659;51.470;6.770;2022-12-18T04:24:23;21.57;;;12.97;;
3293;SDS011;1659;51.470;6.770;2022-12-18T04:26:50;27.20;;;13.37;;
3293;SDS011;1659;51.470;6.770;2022-12-18T04:29:17;28.33;;;12.77;;
3293;SDS011;1659;51.470;6.770;2022-12-18T04:31:45;19.37;;;11.60;;
3293;SDS011;1659;51.470;6.770;2022-12-18T04:34:11;26.40;;;12.43;;
3293;SDS011;1659;51.470;6.770;2022-12-18T04:36:38;26.83;;;11.40;;
3293;SDS011;1659;51.470;6.770;2022-12-18T04:39:05;19.67;;;11.30;;
3293;SDS011;1659;51.470;6.770;2022-12-18T04:41:31;17.83;;;11.33;;
3293;SDS011;1659;51.470;6.770;2022-12-18T04:43:58;21.17;;;11.20;;
3293;SDS011;1659;51.470;6.770;2022-12-18T04:46:24;23.60;;;11.50;;
3293;SDS011;1659;51.470;6.770;2022-12-18T04:48:52;20.20;;;10.90;;
3293;SDS011;1659;51.470;6.770;2022-12-18T04:51:18;23.13;;;10.87;;
3293;SDS011;1659;51.470;6.770;2022-12-18T04:53:45;18.23;;;9.70;;
3293;SDS011;1659;51.470;6.770;2022-12-18T04:56:12;30.60;;;11.00;;
3293;SDS011;1659;51.470;6.770;2022-12-18T04:58:41;23.90;;;11.47;;
3293;SDS011;1659;51.470;6.770;2022-12-18T05:01:09;21.40;;;10.97;;
3293;SDS011;1659;51.470;6.770;2022-12-18T05:03:37;24.10;;;12.53;;
3293;SDS011;1659;51.470;6.770;2022-12-18T05:06:05;21.93;;;10.30;;
3293;SDS011;1659;51.470;6.770;2022-12-18T05:08:33;16.80;;;9.50;;
3293;SDS011;1659;51.470;6.770;2022-12-18T05:11:00;17.17;;;9.63;;
3293;SDS011;1659;51.470;6.770;2022-12-18T05:13:28;14.30;;;8.67;;
3293;SDS011;1659;51.470;6.770;2022-12-18T05:15:55;12.80;;;9.67;;
3293;SDS011;1659;51.470;6.770;2022-12-18T05:18:22;16.10;;;9.40;;
3293;SDS011;1659;51.470;6.770;2022-12-18T05:20:49;16.60;;;10.07;;
3293;SDS011;1659;51.470;6.770;2022-12-18T05:23:17;21.83;;;10.70;;
3293;SDS011;1659;51.470;6.770;2022-12-18T05:25:46;19.93;;;9.87;;
3293;SDS011;1659;51.470;6.770;2022-12-18T05:28:16;16.33;;;10.10;;
3293;SDS011;1659;51.470;6.770;2022-12-18T05:30:42;18.17;;;9.27;;
3293;SDS011;1659;51.470;6.770;2022-12-18T05:33:13;17.40;;;10.17;;
3293;SDS011;1659;51.470;6.770;2022-12-18T05:35:39;22.93;;;10.10;;
3293;SDS011;1659;51.470;6.770;2022-12-18T05:38:06;18.40;;;10.50;;
3293;SDS011;1659;51.470;6.770;2022-12-18T05:40:34;18.73;;;11.80;;
3293;SDS011;1659;51.470;6.770;2022-12-18T05:43:01;30.93;;;13.83;;
3293;SDS011;1659;51.470;6.770;2022-12-18T05:45:31;27.50;;;14.97;;
3293;SDS011;1659;51.470;6.770;2022-12-18T05:47:57;28.77;;;15.93;;
3293;SDS011;1659;51.470;6.770;2022-12-18T05:50:24;33.07;;;18.40;;
3293;SDS011;1659;51.470;6.770;2022-12-18T05:52:50;40.43;;;17.10;;
3293;SDS011;1659;51.470;6.770;2022-12-18T05:55:17;37.43;;;17.07;;
3293;SDS011;1659;51.470;6.770;2022-12-18T05:57:45;27.87;;;15.67;;
3293;SDS011;1659;51.470;6.770;2022-12-18T06:00:12;30.83;;;16.40;;
3293;SDS011;1659;51.470;6.770;2022-12-18T06:02:39;29.17;;;17.50;;
3293;SDS011;1659;51.470;6.770;2022-12-18T06:05:06;39.90;;;19.40;;
3293;SDS011;1659;51.470;6.770;2022-12-18T06:07:32;53.43;;;21.47;;
3293;SDS011;1659;51.470;6.770;2022-12-18T06:09:59;45.00;;;22.40;;
3293;SDS011;1659;51.470;6.770;2022-12-18T06:12:25;47.13;;;23.40;;
3293;SDS011;1659;51.470;6.770;2022-12-18T06:14:53;45.13;;;24.40;;
3293;SDS011;1659;51.470;6.770;2022-12-18T06:17:20;54.47;;;25.03;;
3293;SDS011;1659;51.470;6.770;2022-12-18T06:19:46;51.80;;;24.50;;
3293;SDS011;1659;51.470;6.770;2022-12-18T06:22:13;49.67;;;26.13;;
3293;SDS011;1659;51.470;6.770;2022-12-18T06:24:39;54.00;;;26.10;;
3293;SDS011;1659;51.470;6.770;2022-12-18T06:27:06;59.37;;;26.10;;
3293;SDS011;1659;51.470;6.770;2022-12-18T06:29:32;58.97;;;28.63;;
3293;SDS011;1659;51.470;6.770;2022-12-18T06:32:00;60.33;;;30.07;;
3293;SDS011;1659;51.470;6.770;2022-12-18T06:34:27;61.00;;;32.93;;
3293;SDS011;1659;51.470;6.770;2022-12-18T06:36:55;80.50;;;33.17;;
3293;SDS011;1659;51.470;6.770;2022-12-18T06:39:22;80.33;;;33.37;;
3293;SDS011;1659;51.470;6.770;2022-12-18T06:41:48;72.20;;;35.33;;
3293;SDS011;1659;51.470;6.770;2022-12-18T06:44:15;67.17;;;34.67;;
3293;SDS011;1659;51.470;6.770;2022-12-18T06:46:42;67.03;;;33.33;;
3293;SDS011;1659;51.470;6.770;2022-12-18T06:49:09;66.20;;;35.47;;
3293;SDS011;1659;51.470;6.770;2022-12-18T06:51:36;85.90;;;35.97;;
3293;SDS011;1659;51.470;6.770;2022-12-18T06:54:03;86.67;;;37.50;;
3293;SDS011;1659;51.470;6.770;2022-12-18T06:56:30;81.53;;;36.53;;
3293;SDS011;1659;51.470;6.770;2022-12-18T06:58:56;72.77;;;34.43;;
3293;SDS011;1659;51.470;6.770;2022-12-18T07:01:23;99.33;;;39.50;;
3293;SDS011;1659;51.470;6.770;2022-12-18T07:03:51;71.90;;;37.07;;
3293;SDS011;1659;51.470;6.770;2022-12-18T07:06:21;79.60;;;37.40;;
3293;SDS011;1659;51.470;6.770;2022-12-18T07:08:49;81.47;;;38.30;;
3293;SDS011;1659;51.470;6.770;2022-12-18T07:11:17;92.67;;;42.70;;
3293;SDS011;1659;51.470;6.770;2022-12-18T07:13:44;90.47;;;43.80;;
3293;SDS011;1659;51.470;6.770;2022-12-18T07:16:12;69.63;;;37.53;;
3293;SDS011;1659;51.470;6.770;2022-12-18T07:18:40;90.17;;;39.67;;
3293;SDS011;1659;51.470;6.770;2022-12-18T07:21:08;102.30;;;39.27;;
3293;SDS011;1659;51.470;6.770;2022-12-18T07:23:37;109.30;;;40.10;;
3293;SDS011;1659;51.470;6.770;2022-12-18T07:26:05;98.70;;;40.30;;
3293;SDS011;1659;51.470;6.770;2022-12-18T07:28:33;81.00;;;36.80;;
3293;SDS011;1659;51.470;6.770;2022-12-18T07:31:02;96.03;;;39.90;;
3293;SDS011;1659;51.470;6.770;2022-12-18T07:33:29;85.77;;;40.33;;
3293;SDS011;1659;51.470;6.770;2022-12-18T07:35:55;79.53;;;39.27;;
3293;SDS011;1659;51.470;6.770;2022-12-18T07:38:22;97.63;;;42.80;;
3293;SDS011;1659;51.470;6.770;2022-12-18T07:40:50;86.83;;;41.50;;
3293;SDS011;1659;51.470;6.770;2022-12-18T07:43:16;91.90;;;39.67;;
3293;SDS011;1659;51.470;6.770;2022-12-18T07:45:43;87.43;;;41.10;;
3293;SDS011;1659;51.470;6.770;2022-12-18T07:48:09;91.90;;;39.80;;
3293;SDS011;1659;51.470;6.770;2022-12-18T07:50:36;85.17;;;40.00;;
3293;SDS011;1659;51.470;6.770;2022-12-18T07:53:03;95.23;;;41.40;;
3293;SDS011;1659;51.470;6.770;2022-12-18T07:55:30;77.63;;;40.90;;
3293;SDS011;1659;51.470;6.770;2022-12-18T07:57:59;99.67;;;40.20;;
3293;SDS011;1659;51.470;6.770;2022-12-18T08:00:27;86.80;;;39.00;;
3293;SDS011;1659;51.470;6.770;2022-12-18T08:02:54;79.57;;;41.87;;
3293;SDS011;1659;51.470;6.770;2022-12-18T08:05:21;84.37;;;39.77;;
3293;SDS011;1659;51.470;6.770;2022-12-18T08:07:47;79.33;;;41.70;;
3293;SDS011;1659;51.470;6.770;2022-12-18T08:10:14;109.97;;;42.17;;
3293;SDS011;1659;51.470;6.770;2022-12-18T08:12:41;97.70;;;38.50;;
3293;SDS011;1659;51.470;6.770;2022-12-18T08:15:09;84.07;;;37.67;;
3293;SDS011;1659;51.470;6.770;2022-12-18T08:17:36;74.13;;;37.97;;
3293;SDS011;1659;51.470;6.770;2022-12-18T08:20:03;81.47;;;40.40;;
3293;SDS011;1659;51.470;6.770;2022-12-18T08:22:29;97.17;;;39.47;;
3293;SDS011;1659;51.470;6.770;2022-12-18T08:24:56;108.63;;;44.00;;
3293;SDS011;1659;51.470;6.770;2022-12-18T08:27:22;93.70;;;44.80;;
3293;SDS011;1659;51.470;6.770;2022-12-18T08:29:49;108.47;;;49.33;;
3293;SDS011;1659;51.470;6.770;2022-12-18T08:32:17;99.33;;;47.83;;
3293;SDS011;1659;51.470;6.770;2022-12-18T08:34:43;109.83;;;51.67;;
3293;SDS011;1659;51.470;6.770;2022-12-18T08:37:10;103.70;;;51.77;;
3293;SDS011;1659;51.470;6.770;2022-12-18T08:39:36;118.37;;;53.40;;
3293;SDS011;1659;51.470;6.770;2022-12-18T08:42:03;128.93;;;56.10;;
3293;SDS011;1659;51.470;6.770;2022-12-18T08:44:47;128.50;;;57.40;;
3293;SDS011;1659;51.470;6.770;2022-12-18T08:47:13;118.37;;;54.00;;
3293;SDS011;1659;51.470;6.770;2022-12-18T08:49:41;128.60;;;56.10;;
3293;SDS011;1659;51.470;6.770;2022-12-18T08:52:08;131.20;;;60.27;;
3293;SDS011;1659;51.470;6.770;2022-12-18T08:54:34;120.37;;;57.50;;
3293;SDS011;1659;51.470;6.770;2022-12-18T08:57:01;120.97;;;56.70;;
3293;SDS011;1659;51.470;6.770;2022-12-18T08:59:27;117.63;;;54.40;;
3293;SDS011;1659;51.470;6.770;2022-12-18T09:01:54;104.40;;;53.00;;
3293;SDS011;1659;51.470;6.770;2022-12-18T09:04:21;98.00;;;53.07;;
3293;SDS011;1659;51.470;6.770;2022-12-18T09:06:49;106.00;;;53.43;;
3293;SDS011;1659;51.470;6.770;2022-12-18T09:09:15;102.10;;;54.27;;
3293;SDS011;1659;51.470;6.770;2022-12-18T09:11:42;106.30;;;51.20;;
3293;SDS011;1659;51.470;6.770;2022-12-18T09:14:09;99.77;;;49.70;;
3293;SDS011;1659;51.470;6.770;2022-12-18T09:16:36;105.60;;;52.00;;
3293;SDS011;1659;51.470;6.770;2022-12-18T09:19:03;105.07;;;52.40;;
3293;SDS011;1659;51.470;6.770;2022-12-18T09:21:31;83.90;;;46.10;;
3293;SDS011;1659;51.470;6.770;2022-12-18T09:24:00;87.37;;;47.10;;
3293;SDS011;1659;51.470;6.770;2022-12-18T09:26:26;90.07;;;45.50;;
3293;SDS011;1659;51.470;6.770;2022-12-18T09:28:53;76.63;;;42.63;;
3293;SDS011;1659;51.470;6.770;2022-12-18T09:31:21;82.10;;;40.37;;
3293;SDS011;1659;51.470;6.770;2022-12-18T09:33:49;99.40;;;48.07;;
3293;SDS011;1659;51.470;6.770;2022-12-18T09:36:16;110.60;;;53.77;;
3293;SDS011;1659;51.470;6.770;2022-12-18T09:38:44;186.87;;;82.43;;
3293;SDS011;1659;51.470;6.770;2022-12-18T09:41:18;127.47;;;54.07;;
3293;SDS011;1659;51.470;6.770;2022-12-18T09:43:57;119.00;;;55.50;;
3293;SDS011;1659;51.470;6.770;2022-12-18T09:46:27;258.37;;;110.77;;
3293;SDS011;1659;51.470;6.770;2022-12-18T09:48:59;134.70;;;61.40;;
3293;SDS011;1659;51.470;6.770;2022-12-18T09:51:30;77.23;;;37.27;;
3293;SDS011;1659;51.470;6.770;2022-12-18T09:54:03;47.53;;;27.97;;
3293;SDS011;1659;51.470;6.770;2022-12-18T09:56:35;57.03;;;32.30;;
3293;SDS011;1659;51.470;6.770;2022-12-18T09:59:13;43.90;;;23.03;;
3293;SDS011;1659;51.470;6.770;2022-12-18T10:01:44;36.50;;;21.00;;
3293;SDS011;1659;51.470;6.770;2022-12-18T10:04:11;31.10;;;18.60;;
3293;SDS011;1659;51.470;6.770;2022-12-18T10:06:39;25.50;;;15.10;;
3293;SDS011;1659;51.470;6.770;2022-12-18T10:09:13;18.37;;;11.50;;
3293;SDS011;1659;51.470;6.770;2022-12-18T10:11:52;17.00;;;10.53;;
3293;SDS011;1659;51.470;6.770;2022-12-18T10:14:27;18.77;;;11.87;;
3293;SDS011;1659;51.470;6.770;2022-12-18T10:17:02;23.07;;;12.60;;
3293;SDS011;1659;51.470;6.770;2022-12-18T10:19:37;10.70;;;7.73;;
3293;SDS011;1659;51.470;6.770;2022-12-18T10:22:16;13.30;;;8.40;;
3293;SDS011;1659;51.470;6.770;2022-12-18T10:24:49;14.37;;;7.70;;
3293;SDS011;1659;51.470;6.770;2022-12-18T10:27:23;12.47;;;8.77;;
3293;SDS011;1659;51.470;6.770;2022-12-18T10:29:51;14.77;;;7.67;;
3293;SDS011;1659;51.470;6.770;2022-12-18T10:32:19;17.93;;;8.03;;
3293;SDS011;1659;51.470;6.770;2022-12-18T10:34:48;11.97;;;7.93;;
3293;SDS011;1659;51.470;6.770;2022-12-18T10:37:17;14.37;;;8.17;;
3293;SDS011;1659;51.470;6.770;2022-12-18T10:39:45;14.07;;;7.90;;
3293;SDS011;1659;51.470;6.770;2022-12-18T10:42:16;11.73;;;7.07;;
3293;SDS011;1659;51.470;6.770;2022-12-18T10:44:45;13.20;;;7.40;;
3293;SDS011;1659;51.470;6.770;2022-12-18T10:47:13;13.70;;;8.20;;
3293;SDS011;1659;51.470;6.770;2022-12-18T10:49:47;13.93;;;8.97;;
3293;SDS011;1659;51.470;6.770;2022-12-18T10:52:16;14.30;;;7.83;;
3293;SDS011;1659;51.470;6.770;2022-12-18T10:54:48;12.10;;;8.00;;
3293;SDS011;1659;51.470;6.770;2022-12-18T10:57:17;13.93;;;9.00;;
3293;SDS011;1659;51.470;6.770;2022-12-18T10:59:57;18.00;;;8.17;;
3293;SDS011;1659;51.470;6.770;2022-12-18T11:02:27;13.23;;;6.53;;
3293;SDS011;1659;51.470;6.770;2022-12-18T11:04:59;12.70;;;7.20;;
3293;SDS011;1659;51.470;6.770;2022-12-18T11:07:26;13.60;;;8.50;;
3293;SDS011;1659;51.470;6.770;2022-12-18T11:10:15;8.70;;;6.70;;
3293;SDS011;1659;51.470;6.770;2022-12-18T11:12:43;18.43;;;8.83;;
3293;SDS011;1659;51.470;6.770;2022-12-18T11:15:15;12.50;;;7.73;;
3293;SDS011;1659;51.470;6.770;2022-12-18T11:17:44;9.47;;;5.37;;
3293;SDS011;1659;51.470;6.770;2022-12-18T11:20:23;13.63;;;8.07;;
3293;SDS011;1659;51.470;6.770;2022-12-18T11:22:57;17.00;;;8.73;;
3293;SDS011;1659;51.470;6.770;2022-12-18T11:25:25;15.60;;;8.77;;
3293;SDS011;1659;51.470;6.770;2022-12-18T11:27:56;11.33;;;7.53;;
3293;SDS011;1659;51.470;6.770;2022-12-18T11:30:27;15.50;;;8.83;;
3293;SDS011;1659;51.470;6.770;2022-12-18T11:32:56;16.70;;;8.30;;
3293;SDS011;1659;51.470;6.770;2022-12-18T11:35:32;11.93;;;8.33;;
3293;SDS011;1659;51.470;6.770;2022-12-18T11:38:04;24.60;;;8.40;;
3293;SDS011;1659;51.470;6.770;2022-12-18T11:40:37;13.40;;;8.17;;
3293;SDS011;1659;51.470;6.770;2022-12-18T11:43:07;16.10;;;7.53;;
3293;SDS011;1659;51.470;6.770;2022-12-18T11:45:40;14.30;;;8.90;;
3293;SDS011;1659;51.470;6.770;2022-12-18T11:48:12;19.13;;;9.57;;
3293;SDS011;1659;51.470;6.770;2022-12-18T11:50:47;13.50;;;8.13;;
3293;SDS011;1659;51.470;6.770;2022-12-18T11:53:16;17.87;;;10.00;;
3293;SDS011;1659;51.470;6.770;2022-12-18T11:55:48;19.43;;;9.70;;
3293;SDS011;1659;51.470;6.770;2022-12-18T11:58:26;22.27;;;9.50;;
3293;SDS011;1659;51.470;6.770;2022-12-18T12:01:07;19.53;;;9.70;;
3293;SDS011;1659;51.470;6.770;2022-12-18T12:06:47;19.70;;;8.90;;
3293;SDS011;1659;51.470;6.770;2022-12-18T12:09:23;13.97;;;8.63;;
3293;SDS011;1659;51.470;6.770;2022-12-18T12:12:01;17.93;;;7.50;;
3293;SDS011;1659;51.470;6.770;2022-12-18T12:14:43;27.00;;;13.37;;
3293;SDS011;1659;51.470;6.770;2022-12-18T12:17:21;18.80;;;9.90;;
3293;SDS011;1659;51.470;6.770;2022-12-18T12:19:55;17.03;;;9.63;;
3293;SDS011;1659;51.470;6.770;2022-12-18T12:22:31;22.07;;;9.50;;
3293;SDS011;1659;51.470;6.770;2022-12-18T12:25:12;19.90;;;11.50;;
3293;SDS011;1659;51.470;6.770;2022-12-18T12:27:49;23.10;;;10.80;;
3293;SDS011;1659;51.470;6.770;2022-12-18T12:30:26;20.30;;;11.03;;
3293;SDS011;1659;51.470;6.770;2022-12-18T12:33:05;21.30;;;9.50;;
3293;SDS011;1659;51.470;6.770;2022-12-18T12:35:44;19.50;;;9.40;;
3293;SDS011;1659;51.470;6.770;2022-12-18T12:38:19;23.33;;;10.10;;
3293;SDS011;1659;51.470;6.770;2022-12-18T12:40:51;18.43;;;9.87;;
3293;SDS011;1659;51.470;6.770;2022-12-18T12:43:22;18.13;;;9.43;;
3293;SDS011;1659;51.470;6.770;2022-12-18T12:45:53;22.13;;;12.23;;
3293;SDS011;1659;51.470;6.770;2022-12-18T12:48:31;16.87;;;10.17;;
3293;SDS011;1659;51.470;6.770;2022-12-18T12:51:03;16.43;;;10.53;;
3293;SDS011;1659;51.470;6.770;2022-12-18T12:53:37;17.13;;;10.20;;
3293;SDS011;1659;51.470;6.770;2022-12-18T12:56:06;21.00;;;10.80;;
3293;SDS011;1659;51.470;6.770;2022-12-18T12:58:36;21.10;;;9.97;;
3293;SDS011;1659;51.470;6.770;2022-12-18T13:01:13;21.43;;;11.40;;
3293;SDS011;1659;51.470;6.770;2022-12-18T13:03:54;24.57;;;10.90;;
3293;SDS011;1659;51.470;6.770;2022-12-18T13:06:33;25.27;;;10.90;;
3293;SDS011;1659;51.470;6.770;2022-12-18T13:09:07;23.80;;;12.00;;
3293;SDS011;1659;51.470;6.770;2022-12-18T13:11:37;20.13;;;10.77;;
3293;SDS011;1659;51.470;6.770;2022-12-18T13:14:26;21.80;;;11.03;;
3293;SDS011;1659;51.470;6.770;2022-12-18T13:17:22;21.67;;;12.23;;
3293;SDS011;1659;51.470;6.770;2022-12-18T13:22:48;16.70;;;11.33;;
3293;SDS011;1659;51.470;6.770;2022-12-18T13:25:29;23.23;;;14.47;;
3293;SDS011;1659;51.470;6.770;2022-12-18T13:28:03;23.97;;;11.83;;
3293;SDS011;1659;51.470;6.770;2022-12-18T13:30:42;21.93;;;12.53;;
3293;SDS011;1659;51.470;6.770;2022-12-18T13:36:15;32.37;;;10.60;;
3293;SDS011;1659;51.470;6.770;2022-12-18T13:41:37;22.50;;;14.33;;
3293;SDS011;1659;51.470;6.770;2022-12-18T13:44:10;20.63;;;11.70;;
3293;SDS011;1659;51.470;6.770;2022-12-18T13:46:42;29.73;;;11.80;;
3293;SDS011;1659;51.470;6.770;2022-12-18T13:49:17;24.00;;;14.03;;
3293;SDS011;1659;51.470;6.770;2022-12-18T13:51:50;22.23;;;12.80;;
3293;SDS011;1659;51.470;6.770;2022-12-18T13:54:19;26.27;;;12.53;;
3293;SDS011;1659;51.470;6.770;2022-12-18T13:56:51;23.87;;;14.17;;
3293;SDS011;1659;51.470;6.770;2022-12-18T13:59:18;27.30;;;13.87;;
3293;SDS011;1659;51.470;6.770;2022-12-18T14:01:49;21.20;;;12.67;;
3293;SDS011;1659;51.470;6.770;2022-12-18T14:04:19;31.17;;;13.53;;
3293;SDS011;1659;51.470;6.770;2022-12-18T14:06:50;22.67;;;13.40;;
3293;SDS011;1659;51.470;6.770;2022-12-18T14:09:19;21.77;;;12.50;;
3293;SDS011;1659;51.470;6.770;2022-12-18T14:11:50;27.50;;;13.27;;
3293;SDS011;1659;51.470;6.770;2022-12-18T14:14:40;16.60;;;9.87;;
3293;SDS011;1659;51.470;6.770;2022-12-18T14:17:08;25.33;;;12.67;;
3293;SDS011;1659;51.470;6.770;2022-12-18T14:19:36;20.10;;;12.47;;
3293;SDS011;1659;51.470;6.770;2022-12-18T14:22:04;20.60;;;10.30;;
3293;SDS011;1659;51.470;6.770;2022-12-18T14:24:31;23.40;;;12.73;;
3293;SDS011;1659;51.470;6.770;2022-12-18T14:26:57;27.33;;;13.40;;
3293;SDS011;1659;51.470;6.770;2022-12-18T14:29:45;24.13;;;14.17;;
3293;SDS011;1659;51.470;6.770;2022-12-18T14:32:12;29.40;;;15.00;;
3293;SDS011;1659;51.470;6.770;2022-12-18T14:34:42;30.23;;;15.80;;
3293;SDS011;1659;51.470;6.770;2022-12-18T14:37:11;26.70;;;12.93;;
3293;SDS011;1659;51.470;6.770;2022-12-18T14:39:39;21.13;;;12.40;;
3293;SDS011;1659;51.470;6.770;2022-12-18T14:42:09;35.03;;;14.27;;
3293;SDS011;1659;51.470;6.770;2022-12-18T14:44:36;33.13;;;15.30;;
3293;SDS011;1659;51.470;6.770;2022-12-18T14:47:03;29.20;;;14.50;;
3293;SDS011;1659;51.470;6.770;2022-12-18T14:49:31;24.97;;;13.50;;
3293;SDS011;1659;51.470;6.770;2022-12-18T14:51:59;26.33;;;14.93;;
3293;SDS011;1659;51.470;6.770;2022-12-18T14:54:28;32.90;;;15.03;;
3293;SDS011;1659;51.470;6.770;2022-12-18T14:56:57;25.87;;;15.20;;
3293;SDS011;1659;51.470;6.770;2022-12-18T14:59:27;27.40;;;15.07;;
3293;SDS011;1659;51.470;6.770;2022-12-18T15:02:00;26.73;;;12.80;;
3293;SDS011;1659;51.470;6.770;2022-12-18T15:04:31;27.80;;;14.43;;
3293;SDS011;1659;51.470;6.770;2022-12-18T15:07:11;25.93;;;15.13;;
3293;SDS011;1659;51.470;6.770;2022-12-18T15:09:42;24.47;;;15.97;;
3293;SDS011;1659;51.470;6.770;2022-12-18T15:12:32;31.30;;;13.80;;
3293;SDS011;1659;51.470;6.770;2022-12-18T15:15:00;26.60;;;12.47;;
3293;SDS011;1659;51.470;6.770;2022-12-18T15:17:26;23.07;;;13.20;;
3293;SDS011;1659;51.470;6.770;2022-12-18T15:19:53;30.90;;;15.57;;